Time;durP1;ratioP1;P1;durP2;ratioP2;P2;SDS_P1;SDS_P2;PMS_P1;PMS_P2;Temp;Humidity;BMP_temperature;BMP_pressure;BME280_temperature;BME280_humidity;BME280_pressure;Samples;Min_cycle;Max_cycle;Signal;HPM_P1;HPM_P2
2021/11/10 00:00:41;;;;;;;0.73;0.50;;;21.30;53.90;;;;;;6269647;28;20033;-65
2021/11/10 00:03:42;;;;;;;1.95;0.70;;;21.30;53.90;;;;;;6270353;28;20482;-65
2021/11/10 00:06:43;;;;;;;0.90;0.60;;;21.30;53.90;;;;;;6270242;28;20033;-64
2021/11/10 00:09:43;;;;;;;1.30;0.80;;;21.30;53.90;;;;;;6270002;28;20033;-65
2021/11/10 00:12:44;;;;;;;0.60;0.57;;;21.30;53.90;;;;;;6268061;28;20041;-65
2021/11/10 00:15:49;;;;;;;0.82;0.60;;;21.30;54.00;;;;;;6269632;28;20049;-65
2021/11/10 00:18:51;;;;;;;0.75;0.60;;;21.30;53.90;;;;;;6250549;28;20032;-65
2021/11/10 00:21:52;;;;;;;1.13;0.70;;;21.30;53.90;;;;;;6246586;28;20457;-65
2021/11/10 00:24:53;;;;;;;1.65;0.75;;;21.20;53.90;;;;;;6269216;28;20112;-65
2021/11/10 00:27:53;;;;;;;0.63;0.60;;;21.30;53.90;;;;;;6268843;28;20052;-64
2021/11/10 00:30:54;;;;;;;3.17;0.60;;;21.30;53.90;;;;;;6257739;28;20397;-66
2021/11/10 00:33:54;;;;;;;0.88;0.65;;;21.20;53.90;;;;;;6256209;28;20037;-65
2021/11/10 00:36:56;;;;;;;0.95;0.70;;;21.20;53.90;;;;;;6268861;28;20541;-65
2021/11/10 00:39:56;;;;;;;0.85;0.70;;;21.30;53.90;;;;;;6268788;28;20115;-66
2021/11/10 00:42:57;;;;;;;1.20;0.68;;;21.20;53.90;;;;;;6240333;28;20041;-65
2021/11/10 00:45:57;;;;;;;0.93;0.60;;;21.30;54.00;;;;;;6218193;28;20026;-65
2021/11/10 00:48:59;;;;;;;0.85;0.60;;;21.20;53.90;;;;;;6219307;28;20018;-65
2021/11/10 00:52:00;;;;;;;0.90;0.60;;;21.20;53.90;;;;;;6229310;28;20048;-65
2021/11/10 00:55:01;;;;;;;0.80;0.63;;;21.30;53.90;;;;;;6243805;28;20379;-64
2021/11/10 00:58:02;;;;;;;0.77;0.70;;;21.20;53.90;;;;;;6260938;28;20029;-65
2021/11/10 01:01:03;;;;;;;0.82;0.80;;;21.20;53.90;;;;;;6267678;28;20425;-64
2021/11/10 01:04:04;;;;;;;0.70;0.70;;;21.20;53.90;;;;;;6243834;28;20087;-65
2021/11/10 01:07:05;;;;;;;1.50;0.60;;;21.20;53.90;;;;;;6248811;28;20025;-65
2021/11/10 01:10:06;;;;;;;0.80;0.63;;;21.30;54.00;;;;;;6268162;28;20044;-65
2021/11/10 01:13:07;;;;;;;0.88;0.68;;;21.20;53.90;;;;;;6268443;28;20041;-65
2021/11/10 01:16:08;;;;;;;0.80;0.70;;;21.20;53.90;;;;;;6268090;28;20025;-65
2021/11/10 01:19:09;;;;;;;0.93;0.70;;;21.20;53.90;;;;;;6242794;28;20105;-65
2021/11/10 01:22:10;;;;;;;0.80;0.68;;;21.20;53.80;;;;;;6247138;28;20025;-64
2021/11/10 01:25:11;;;;;;;0.88;0.70;;;21.20;53.90;;;;;;6263864;28;20395;-65
2021/11/10 01:28:12;;;;;;;0.95;0.75;;;21.20;53.80;;;;;;6242895;28;20494;-64
2021/11/10 01:31:12;;;;;;;0.73;0.60;;;21.20;53.80;;;;;;6238886;28;20025;-64
2021/11/10 01:34:13;;;;;;;0.88;0.77;;;21.20;53.90;;;;;;6243830;28;20408;-65
2021/11/10 01:37:14;;;;;;;0.93;0.63;;;21.20;53.90;;;;;;6257221;28;20029;-65
2021/11/10 01:40:20;;;;;;;0.95;0.70;;;21.20;53.80;;;;;;6267679;28;20029;-65
2021/11/10 01:43:21;;;;;;;0.75;0.60;;;21.20;53.90;;;;;;6267753;28;20321;-65
2021/11/10 01:46:22;;;;;;;1.13;0.70;;;21.20;53.80;;;;;;6266527;28;20029;-66
2021/11/10 01:49:23;;;;;;;1.00;0.82;;;21.20;53.80;;;;;;6263598;28;20032;-64
2021/11/10 01:52:23;;;;;;;0.75;0.70;;;21.20;53.80;;;;;;6255681;28;20025;-65
2021/11/10 01:55:24;;;;;;;1.23;1.00;;;21.20;53.80;;;;;;6267811;28;20028;-65
2021/11/10 01:58:25;;;;;;;0.70;0.70;;;21.20;53.80;;;;;;6266741;28;20478;-65
2021/11/10 02:01:26;;;;;;;0.70;0.52;;;21.20;53.80;;;;;;6267289;28;20705;-65
2021/11/10 02:04:31;;;;;;;0.93;0.60;;;21.20;53.90;;;;;;6267689;28;20057;-65
2021/11/10 02:07:34;;;;;;;1.00;0.63;;;21.20;53.80;;;;;;6267426;28;20021;-65
2021/11/10 02:10:35;;;;;;;0.70;0.70;;;21.20;53.80;;;;;;6267653;28;20479;-65
2021/11/10 02:13:36;;;;;;;1.02;0.60;;;21.20;53.80;;;;;;6267081;28;20068;-65
2021/11/10 02:16:38;;;;;;;0.98;0.73;;;21.20;53.80;;;;;;6266687;28;20029;-65
2021/11/10 02:19:39;;;;;;;0.60;0.57;;;21.20;53.80;;;;;;6242588;28;20021;-65
2021/11/10 02:22:39;;;;;;;1.27;0.80;;;21.20;53.80;;;;;;6249046;28;20025;-65
2021/11/10 02:25:40;;;;;;;1.27;0.77;;;21.20;53.80;;;;;;6266894;28;20036;-65
2021/11/10 02:28:40;;;;;;;1.38;0.77;;;21.20;53.80;;;;;;6247898;28;20040;-65
2021/11/10 02:31:43;;;;;;;0.75;0.65;;;21.20;53.80;;;;;;6234272;28;20494;-65
2021/11/10 02:34:45;;;;;;;1.20;0.70;;;21.20;53.80;;;;;;6242746;28;20382;-64
2021/11/10 02:37:56;;;;;;;0.60;0.60;;;21.20;53.80;;;;;;6265096;28;20025;-65
2021/11/10 02:40:58;;;;;;;0.90;0.70;;;21.20;53.80;;;;;;6268830;28;20056;-65
2021/11/10 02:44:00;;;;;;;0.93;0.65;;;21.20;53.80;;;;;;6245328;28;20401;-64
2021/11/10 02:47:01;;;;;;;1.17;0.70;;;21.20;53.80;;;;;;6256428;28;20029;-65
2021/11/10 02:50:03;;;;;;;1.23;0.82;;;21.20;53.80;;;;;;6271460;28;20025;-64
2021/11/10 02:53:04;;;;;;;0.90;0.70;;;21.20;53.80;;;;;;6271257;28;20025;-65
2021/11/10 02:56:05;;;;;;;1.15;0.73;;;21.20;53.80;;;;;;6271226;28;20082;-65
2021/11/10 02:59:06;;;;;;;1.40;0.70;;;21.20;54.40;;;;;;6270297;28;20022;-65
2021/11/10 03:02:08;;;;;;;0.90;0.70;;;21.20;53.80;;;;;;6261671;28;20100;-65
2021/11/10 03:05:09;;;;;;;0.82;0.73;;;21.20;53.80;;;;;;6245353;28;20082;-65
2021/11/10 03:08:09;;;;;;;1.17;0.95;;;21.20;53.80;;;;;;6246642;28;20603;-65
2021/11/10 03:11:10;;;;;;;0.70;0.60;;;21.20;53.70;;;;;;6246153;28;20056;-64
2021/11/10 03:14:11;;;;;;;1.00;0.90;;;21.20;53.70;;;;;;6270388;28;20087;-65
2021/11/10 03:17:17;;;;;;;0.93;0.80;;;21.20;53.70;;;;;;6263195;28;20443;-66
2021/11/10 03:20:17;;;;;;;0.50;0.50;;;21.20;53.70;;;;;;6246023;28;20503;-65
2021/11/10 03:23:18;;;;;;;0.90;0.70;;;21.20;53.70;;;;;;6261531;28;20028;-65
2021/11/10 03:26:20;;;;;;;0.80;0.68;;;21.20;53.70;;;;;;6270343;28;20589;-65
2021/11/10 03:29:22;;;;;;;0.73;0.60;;;21.20;53.70;;;;;;6268671;28;20065;-65
2021/11/10 03:32:23;;;;;;;0.75;0.57;;;21.20;53.70;;;;;;6252612;28;20083;-65
2021/11/10 03:35:24;;;;;;;1.50;0.80;;;21.20;53.70;;;;;;6245543;28;20120;-65
2021/11/10 03:38:25;;;;;;;1.95;0.77;;;21.20;53.70;;;;;;6269603;28;20017;-64
2021/11/10 03:41:26;;;;;;;1.30;0.73;;;21.20;53.70;;;;;;6270742;28;20583;-65
2021/11/10 03:44:27;;;;;;;1.60;0.80;;;21.20;53.70;;;;;;6270287;28;20063;-65
2021/11/10 03:47:27;;;;;;;0.57;0.50;;;21.20;53.70;;;;;;6255949;28;20056;-64
2021/11/10 03:50:28;;;;;;;0.70;0.65;;;21.20;53.80;;;;;;6245421;28;20163;-64
2021/11/10 03:53:28;;;;;;;1.98;0.80;;;21.20;53.80;;;;;;6267366;28;20029;-64
2021/11/10 03:56:29;;;;;;;1.38;0.90;;;21.20;53.70;;;;;;6269871;28;20111;-64
2021/11/10 04:03:27;;;;;;;1.25;0.95;;;21.20;53.70;;;;;;6255087;28;20271;-65
2021/11/10 04:06:29;;;;;;;1.38;0.77;;;21.20;53.70;;;;;;6267155;28;20411;-65
2021/11/10 04:09:30;;;;;;;0.80;0.60;;;21.20;53.70;;;;;;6244880;28;20060;-66
2021/11/10 04:12:30;;;;;;;0.88;0.82;;;21.20;53.70;;;;;;6253583;28;20053;-64
2021/11/10 04:15:32;;;;;;;0.85;0.70;;;21.20;53.70;;;;;;6269566;28;20539;-66
2021/11/10 04:18:33;;;;;;;1.17;0.70;;;21.20;53.70;;;;;;6253023;28;20092;-65
2021/11/10 04:21:34;;;;;;;1.58;0.68;;;21.20;53.70;;;;;;6244699;28;20021;-65
2021/11/10 04:24:36;;;;;;;1.40;0.80;;;21.20;53.70;;;;;;6268702;28;20051;-65
2021/11/10 04:27:36;;;;;;;1.25;0.80;;;21.20;53.70;;;;;;6263085;28;20052;-64
2021/11/10 04:30:37;;;;;;;1.10;0.73;;;21.20;53.70;;;;;;6258134;28;20033;-65
2021/11/10 04:33:38;;;;;;;0.82;0.70;;;21.20;54.40;;;;;;6250075;28;20037;-64
2021/11/10 04:36:39;;;;;;;1.08;0.68;;;21.20;53.70;;;;;;6253619;28;20102;-65
2021/11/10 04:39:41;;;;;;;0.80;0.70;;;21.20;53.60;;;;;;6268971;28;20480;-65
2021/11/10 04:42:42;;;;;;;0.80;0.70;;;21.20;53.70;;;;;;6268549;28;20078;-65
2021/11/10 04:45:45;;;;;;;0.85;0.80;;;21.20;53.70;;;;;;6253580;28;20030;-65
2021/11/10 04:48:46;;;;;;;1.30;0.77;;;21.20;53.70;;;;;;6243843;28;20017;-65
2021/11/10 04:51:47;;;;;;;0.65;0.60;;;21.20;53.60;;;;;;6251567;28;20405;-64
2021/11/10 04:54:49;;;;;;;1.23;0.85;;;21.20;53.60;;;;;;6268572;28;20033;-65
2021/11/10 04:57:50;;;;;;;1.13;0.85;;;21.20;53.70;;;;;;6268167;28;20036;-64
2021/11/10 05:00:50;;;;;;;1.17;0.70;;;21.20;53.70;;;;;;6268258;28;20431;-65
2021/11/10 05:03:51;;;;;;;1.05;0.60;;;21.20;53.60;;;;;;6268186;28;20021;-64
2021/11/10 05:06:53;;;;;;;1.00;0.80;;;21.20;53.70;;;;;;6264400;28;20025;-64
2021/11/10 05:09:54;;;;;;;1.23;0.82;;;21.20;53.60;;;;;;6243503;28;20041;-65
2021/11/10 05:12:55;;;;;;;1.15;0.75;;;21.20;53.60;;;;;;6253674;28;20056;-65
2021/11/10 05:15:55;;;;;;;0.98;0.60;;;21.20;53.60;;;;;;6268208;28;20024;-66
2021/11/10 05:18:56;;;;;;;1.20;1.10;;;21.20;53.60;;;;;;6253332;28;20025;-65
2021/11/10 05:21:57;;;;;;;0.90;0.80;;;21.20;53.70;;;;;;6243346;28;20479;-65
2021/11/10 05:24:57;;;;;;;1.95;0.70;;;21.20;53.70;;;;;;6264784;28;20406;-65
2021/11/10 05:27:58;;;;;;;1.25;0.90;;;21.20;53.70;;;;;;6264583;28;20025;-64
2021/11/10 05:30:58;;;;;;;1.00;0.88;;;21.20;53.70;;;;;;6250996;28;20030;-65
2021/11/10 05:33:59;;;;;;;0.98;0.80;;;21.20;53.70;;;;;;6243118;28;20025;-64
2021/11/10 05:37:00;;;;;;;0.95;0.80;;;21.20;53.70;;;;;;6230801;28;20114;-65
2021/11/10 05:40:01;;;;;;;1.17;0.90;;;21.20;53.60;;;;;;6217576;28;20033;-65
2021/11/10 05:43:02;;;;;;;0.82;0.70;;;21.20;53.60;;;;;;6257690;28;20044;-65
2021/11/10 05:46:04;;;;;;;1.23;0.85;;;21.20;53.60;;;;;;6265319;28;20573;-65
2021/11/10 05:49:05;;;;;;;0.82;0.60;;;21.20;53.60;;;;;;6243342;28;20056;-65
2021/11/10 05:52:06;;;;;;;1.13;1.00;;;21.20;53.50;;;;;;6253559;28;20037;-68
2021/11/10 05:55:08;;;;;;;0.77;0.70;;;21.20;53.60;;;;;;6267572;28;20033;-65
2021/11/10 05:58:10;;;;;;;1.25;0.90;;;21.20;53.60;;;;;;6267955;28;20024;-64
2021/11/10 06:01:11;;;;;;;1.02;0.70;;;21.20;53.60;;;;;;6262916;28;20022;-65
2021/11/10 06:04:12;;;;;;;2.20;0.65;;;21.20;53.60;;;;;;6219993;28;20029;-65
2021/11/10 06:07:13;;;;;;;0.80;0.80;;;21.20;53.60;;;;;;6227148;28;20098;-65
2021/11/10 06:10:16;;;;;;;1.30;0.90;;;21.20;53.60;;;;;;6244480;28;20430;-65
2021/11/10 06:13:18;;;;;;;1.05;0.85;;;21.20;53.60;;;;;;6264141;28;20044;-65
2021/11/10 06:16:18;;;;;;;1.05;0.88;;;21.20;53.60;;;;;;6274040;28;20025;-65
2021/11/10 06:19:20;;;;;;;1.27;0.80;;;21.20;53.60;;;;;;6250926;28;20017;-65
2021/11/10 06:22:20;;;;;;;0.90;0.70;;;21.20;53.50;;;;;;6255163;28;20212;-65
2021/11/10 06:25:21;;;;;;;0.88;0.70;;;21.20;53.60;;;;;;6267390;28;20032;-65
2021/11/10 06:28:21;;;;;;;2.38;1.17;;;21.20;53.50;;;;;;6224505;28;20061;-65
2021/11/10 06:31:22;;;;;;;1.00;0.80;;;21.20;53.40;;;;;;6232018;28;20057;-65
2021/11/10 06:34:23;;;;;;;1.48;0.75;;;21.20;53.50;;;;;;6247133;28;20120;-65
2021/11/10 06:37:23;;;;;;;1.67;0.70;;;21.20;53.40;;;;;;6239365;28;20112;-65
2021/11/10 06:40:26;;;;;;;1.20;0.82;;;21.20;53.40;;;;;;6224128;28;20463;-65
2021/11/10 06:43:28;;;;;;;1.25;0.68;;;21.20;53.40;;;;;;6269452;28;20474;-66
2021/11/10 06:46:29;;;;;;;1.20;0.80;;;21.20;53.40;;;;;;6266531;28;20163;-65
2021/11/10 06:49:30;;;;;;;1.25;1.00;;;21.20;53.40;;;;;;6246925;28;20029;-65
2021/11/10 06:52:31;;;;;;;0.77;0.75;;;21.20;53.40;;;;;;6262075;28;20025;-66
2021/11/10 06:55:32;;;;;;;1.73;0.80;;;21.20;53.40;;;;;;6273139;28;20036;-65
2021/11/10 06:58:32;;;;;;;1.80;0.98;;;21.20;53.40;;;;;;6250972;28;20402;-66
2021/11/10 07:01:33;;;;;;;1.40;0.90;;;21.20;53.40;;;;;;6232850;28;20029;-64
2021/11/10 07:04:36;;;;;;;1.13;0.93;;;21.20;53.40;;;;;;6250411;28;20036;-66
2021/11/10 07:07:37;;;;;;;1.48;0.85;;;21.20;53.40;;;;;;6250436;28;20021;-66
2021/11/10 07:10:38;;;;;;;1.95;1.17;;;21.20;53.40;;;;;;6266931;28;20029;-66
2021/11/10 07:13:39;;;;;;;1.40;0.80;;;21.20;53.40;;;;;;6274585;28;20080;-66
2021/11/10 07:16:39;;;;;;;1.30;0.90;;;21.20;53.40;;;;;;6274828;28;20025;-65
2021/11/10 07:19:41;;;;;;;1.38;0.80;;;21.20;53.40;;;;;;6275064;28;20025;-66
2021/11/10 07:22:41;;;;;;;1.25;0.90;;;21.20;53.40;;;;;;6273941;28;20124;-66
2021/11/10 07:25:43;;;;;;;1.50;1.10;;;21.20;53.50;;;;;;6265198;28;20025;-65
2021/11/10 07:28:44;;;;;;;1.73;1.10;;;21.20;53.50;;;;;;6249886;28;20033;-66
2021/11/10 07:31:45;;;;;;;1.15;0.88;;;21.20;53.50;;;;;;6238840;28;20080;-64
2021/11/10 07:34:45;;;;;;;1.45;1.00;;;21.20;53.50;;;;;;6225115;28;20451;-66
2021/11/10 07:37:47;;;;;;;1.20;0.80;;;21.20;53.50;;;;;;6262227;28;20530;-66
2021/11/10 07:40:48;;;;;;;1.13;1.00;;;21.20;53.50;;;;;;6274176;28;20028;-65
2021/11/10 07:43:52;;;;;;;1.58;1.15;;;21.20;53.50;;;;;;6272879;28;20390;-66
2021/11/10 07:47:03;;;;;;;1.60;0.82;;;21.20;53.50;;;;;;6273948;28;20025;-65
2021/11/10 07:50:04;;;;;;;1.00;0.70;;;21.20;53.50;;;;;;6274180;28;20115;-64
2021/11/10 07:53:05;;;;;;;1.02;0.80;;;21.20;53.50;;;;;;6236424;28;20030;-66
2021/11/10 07:56:06;;;;;;;1.13;0.90;;;21.20;53.50;;;;;;6241338;28;20022;-65
2021/11/10 07:59:07;;;;;;;1.30;0.98;;;21.20;53.50;;;;;;6249228;28;20390;-66
2021/11/10 08:02:07;;;;;;;1.58;1.10;;;21.20;53.50;;;;;;6249159;28;20074;-65
2021/11/10 08:05:10;;;;;;;2.00;1.00;;;21.20;53.50;;;;;;6248785;28;20083;-66
2021/11/10 08:08:11;;;;;;;1.30;1.10;;;21.20;53.50;;;;;;6238922;28;20026;-65
2021/11/10 08:11:12;;;;;;;0.80;0.80;;;21.20;53.50;;;;;;6224261;28;20422;-66
2021/11/10 08:14:13;;;;;;;1.58;0.90;;;21.20;53.40;;;;;;6264178;28;20072;-66
2021/11/10 08:17:14;;;;;;;1.20;0.75;;;21.20;53.40;;;;;;6272427;28;20029;-65
2021/11/10 08:20:17;;;;;;;1.17;0.85;;;21.20;53.40;;;;;;6273328;28;20036;-65
2021/11/10 08:23:20;;;;;;;1.10;0.80;;;21.20;53.50;;;;;;6250445;28;20480;-66
2021/11/10 08:26:21;;;;;;;1.20;0.98;;;21.20;53.50;;;;;;6243595;28;20034;-66
2021/11/10 08:29:22;;;;;;;1.38;1.00;;;21.20;53.50;;;;;;6249065;28;20036;-66
2021/11/10 08:32:23;;;;;;;1.00;0.80;;;21.20;53.40;;;;;;6232329;28;20030;-66
2021/11/10 08:35:24;;;;;;;0.90;0.80;;;21.20;53.50;;;;;;6223499;28;20506;-66
2021/11/10 08:38:29;;;;;;;1.40;1.08;;;21.20;53.40;;;;;;6247257;28;20376;-66
2021/11/10 08:41:30;;;;;;;;;;;21.30;53.60;;;;;;6255900;28;20406;-65
2021/11/10 08:44:33;;;;;;;1.45;1.00;;;21.20;53.50;;;;;;6272956;28;19988;-66
2021/11/10 08:47:35;;;;;;;1.40;1.02;;;21.20;53.50;;;;;;6258042;28;20075;-66
2021/11/10 08:50:40;;;;;;;1.23;0.90;;;21.20;53.50;;;;;;6248215;28;20113;-65
2021/11/10 08:53:40;;;;;;;3.15;0.73;;;21.30;53.60;;;;;;6270089;28;20056;-66
2021/11/10 08:56:41;;;;;;;1.77;0.93;;;21.20;53.40;;;;;;6266537;28;20080;-66
2021/11/10 08:59:41;;;;;;;1.27;0.93;;;21.30;53.60;;;;;;6247896;28;20100;-66
2021/11/10 09:02:42;;;;;;;0.88;0.80;;;21.30;53.50;;;;;;6238570;28;20056;-66
2021/11/10 09:05:43;;;;;;;1.40;1.13;;;21.30;53.50;;;;;;6223039;28;20057;-67
2021/11/10 09:08:43;;;;;;;1.98;1.20;;;21.30;53.60;;;;;;6243178;28;20033;-66
2021/11/10 09:11:49;;;;;;;1.58;1.08;;;21.20;53.50;;;;;;6245748;28;20513;-66
2021/11/10 09:14:49;;;;;;;1.58;0.90;;;21.30;53.50;;;;;;6247300;28;20123;-66
2021/11/10 09:17:51;;;;;;;1.95;1.10;;;21.30;53.60;;;;;;6247216;28;20033;-66
2021/11/10 09:20:52;;;;;;;1.40;1.05;;;21.30;53.60;;;;;;6245928;28;20483;-65
2021/11/10 09:23:53;;;;;;;2.22;1.08;;;21.30;53.60;;;;;;6246793;28;20044;-66
2021/11/10 09:26:54;;;;;;;1.50;1.10;;;21.30;53.60;;;;;;6243874;28;20041;-66
2021/11/10 09:29:55;;;;;;;1.25;1.02;;;21.30;53.60;;;;;;6222389;28;20061;-65
2021/11/10 09:32:57;;;;;;;1.23;0.93;;;21.30;53.60;;;;;;6242402;28;20025;-66
2021/11/10 09:35:57;;;;;;;1.20;1.00;;;21.30;53.60;;;;;;6245655;28;20078;-66
2021/11/10 09:38:58;;;;;;;1.50;1.02;;;21.30;53.60;;;;;;6246916;28;20475;-65
2021/11/10 09:42:00;;;;;;;1.45;0.90;;;21.30;53.60;;;;;;6246648;28;20109;-66
2021/11/10 09:45:01;;;;;;;1.55;1.08;;;21.30;53.60;;;;;;6245415;28;20057;-66
2021/11/10 09:48:04;;;;;;;2.53;1.17;;;21.30;53.60;;;;;;6264035;28;20078;-66
2021/11/10 09:51:06;;;;;;;1.65;1.00;;;21.30;53.60;;;;;;6271403;28;20096;-66
2021/11/10 09:54:07;;;;;;;1.67;1.23;;;21.30;53.60;;;;;;6269840;28;20029;-66
2021/11/10 09:57:07;;;;;;;1.48;1.10;;;21.30;53.60;;;;;;6261256;28;20029;-66
2021/11/10 10:00:14;;;;;;;1.58;1.27;;;21.30;53.50;;;;;;6246369;28;20017;-66
2021/11/10 10:03:19;;;;;;;1.20;1.00;;;21.30;53.50;;;;;;6245061;28;20025;-65
2021/11/10 10:06:21;;;;;;;1.65;1.05;;;21.30;53.50;;;;;;6246187;28;20029;-66
2021/11/10 10:09:22;;;;;;;1.77;1.25;;;21.30;53.50;;;;;;6246181;28;20604;-66
2021/11/10 10:12:22;;;;;;;1.55;1.08;;;21.30;53.40;;;;;;6249246;28;20045;-65
2021/11/10 10:15:26;;;;;;;0.90;0.77;;;21.30;53.40;;;;;;6270872;28;20021;-66
2021/11/10 10:18:28;;;;;;;1.42;0.82;;;21.30;53.50;;;;;;6245611;28;20018;-66
2021/11/10 10:21:29;;;;;;;2.13;1.20;;;21.30;53.40;;;;;;6221501;28;20491;-67
2021/11/10 10:24:45;;;;;;;1.35;1.00;;;21.30;53.40;;;;;;6221290;28;20026;-66
2021/11/10 10:27:58;;;;;;;1.75;1.23;;;21.30;53.50;;;;;;6241177;28;20028;-66
2021/11/10 10:31:05;;;;;;;1.45;0.85;;;21.30;53.40;;;;;;6244518;28;20582;-66
2021/11/10 10:34:11;;;;;;;1.33;0.90;;;21.30;53.40;;;;;;6244877;28;20030;-66
2021/11/10 10:37:48;;;;;;;1.00;0.80;;;21.30;53.40;;;;;;6259598;28;20036;-66
2021/11/10 10:40:52;;;;;;;1.77;1.10;;;21.30;53.40;;;;;;6269184;28;20092;-66
2021/11/10 10:43:54;;;;;;;0.95;0.82;;;21.30;53.40;;;;;;6269190;28;20528;-66
2021/11/10 10:46:58;;;;;;;1.55;0.93;;;21.30;53.40;;;;;;6251211;28;20022;-66
2021/11/10 10:49:59;;;;;;;1.63;1.15;;;21.30;53.40;;;;;;6220132;28;20026;-66
2021/11/10 10:53:00;;;;;;;1.33;0.75;;;21.30;53.50;;;;;;6256560;28;20505;-66
2021/11/10 10:56:12;;;;;;;1.27;0.90;;;21.30;53.40;;;;;;6269711;28;20021;-66
2021/11/10 10:59:13;;;;;;;1.92;1.10;;;21.30;53.40;;;;;;6250406;28;20025;-66
2021/11/10 11:02:15;;;;;;;1.40;1.10;;;21.30;53.40;;;;;;6240751;28;20120;-64
2021/11/10 11:05:41;;;;;;;1.90;0.98;;;21.30;53.40;;;;;;6224941;28;20088;-64
2021/11/10 11:08:42;;;;;;;1.00;0.90;;;21.30;53.50;;;;;;6266958;28;20047;-66
2021/11/10 11:11:57;;;;;;;1.52;0.80;;;21.30;53.40;;;;;;6270439;28;20479;-66
2021/11/10 11:15:09;;;;;;;0.80;0.80;;;21.30;53.40;;;;;;6248709;28;20053;-66
2021/11/10 11:18:20;;;;;;;1.20;0.90;;;21.30;53.50;;;;;;6239751;28;20030;-66
2021/11/10 11:21:27;;;;;;;1.13;0.80;;;21.30;53.50;;;;;;6225268;28;20026;-65
2021/11/10 11:24:37;;;;;;;2.17;0.95;;;21.30;53.50;;;;;;6225471;28;20073;-66
2021/11/10 11:27:40;;;;;;;1.30;1.00;;;21.30;53.50;;;;;;6242482;28;20471;-66
2021/11/10 11:30:57;;;;;;;0.80;0.68;;;21.30;53.50;;;;;;6249736;28;20057;-66
2021/11/10 11:33:59;;;;;;;1.48;1.00;;;21.30;53.50;;;;;;6240271;28;20494;-65
2021/11/10 11:37:00;;;;;;;1.65;1.00;;;21.30;53.40;;;;;;6235114;28;20437;-66
2021/11/10 11:40:05;;;;;;;1.00;0.80;;;21.30;53.40;;;;;;6249668;28;20025;-66
2021/11/10 11:43:09;;;;;;;1.33;0.80;;;21.30;53.40;;;;;;6248006;28;20018;-66
2021/11/10 11:46:09;;;;;;;1.17;0.98;;;21.30;53.40;;;;;;6249276;28;20028;-66
2021/11/10 11:49:11;;;;;;;1.35;0.90;;;21.30;53.40;;;;;;6247814;28;20029;-66
2021/11/10 11:52:14;;;;;;;1.73;1.00;;;21.30;53.40;;;;;;6249193;28;20044;-66
2021/11/10 11:55:31;;;;;;;1.20;0.82;;;21.30;53.40;;;;;;6248842;28;20065;-66
2021/11/10 11:58:40;;;;;;;1.30;0.93;;;21.30;53.40;;;;;;6249029;28;20494;-65
2021/11/10 12:01:41;;;;;;;1.42;0.77;;;21.30;53.50;;;;;;6248996;28;20021;-66
2021/11/10 12:04:45;;;;;;;1.60;0.98;;;21.30;53.50;;;;;;6248888;28;20029;-67
2021/11/10 12:07:54;;;;;;;0.70;0.70;;;21.30;53.40;;;;;;6259278;28;20029;-66
2021/11/10 12:10:55;;;;;;;1.65;0.80;;;21.30;53.40;;;;;;6272002;28;20059;-66
2021/11/10 12:14:19;;;;;;;1.80;0.90;;;21.30;53.50;;;;;;6252749;28;20515;-66
2021/11/10 12:17:22;;;;;;;1.60;0.85;;;21.40;53.50;;;;;;6247211;28;20036;-66
2021/11/10 12:20:36;;;;;;;1.02;0.80;;;21.30;53.50;;;;;;6248267;28;20072;-66
2021/11/10 12:23:55;;;;;;;0.87;0.80;;;21.30;53.50;;;;;;6264906;28;20103;-66
2021/11/10 12:27:17;;;;;;;1.83;0.95;;;21.30;53.50;;;;;;6260926;28;20032;-66
2021/11/10 12:30:19;;;;;;;0.90;0.80;;;21.30;53.50;;;;;;6273691;28;20033;-67
2021/11/10 12:33:32;;;;;;;1.70;0.77;;;21.30;53.50;;;;;;6240364;28;20121;-66
2021/11/10 12:36:52;;;;;;;1.02;0.68;;;21.30;53.50;;;;;;6256473;28;20063;-66
2021/11/10 12:40:14;;;;;;;1.27;0.80;;;21.40;53.60;;;;;;6271587;28;20021;-66
2021/11/10 12:43:24;;;;;;;1.17;0.98;;;21.30;53.50;;;;;;6272598;28;20075;-66
2021/11/10 12:46:27;;;;;;;1.23;0.80;;;21.40;54.30;;;;;;6272578;28;20028;-66
2021/11/10 12:49:28;;;;;;;0.90;0.80;;;21.40;53.60;;;;;;6271278;28;20025;-66
2021/11/10 12:52:44;;;;;;;1.50;0.85;;;21.40;53.60;;;;;;6258766;28;20021;-66
2021/11/10 12:55:55;;;;;;;0.90;0.70;;;21.40;53.60;;;;;;6246563;28;20030;-66
2021/11/10 12:59:02;;;;;;;0.73;0.73;;;21.40;53.60;;;;;;6247589;28;20018;-66
2021/11/10 13:02:17;;;;;;;1.17;0.82;;;21.30;53.50;;;;;;6238099;28;20487;-65
2021/11/10 13:05:28;;;;;;;0.88;0.70;;;21.40;53.60;;;;;;6221833;28;20434;-66
2021/11/10 13:08:40;;;;;;;1.08;0.80;;;21.30;53.40;;;;;;6242246;28;20029;-66
2021/11/10 13:11:42;;;;;;;1.10;0.90;;;21.30;53.40;;;;;;6245855;28;20025;-66
2021/11/10 13:14:49;;;;;;;1.02;0.90;;;21.30;53.40;;;;;;6246125;28;20037;-66
2021/11/10 13:17:51;;;;;;;2.95;1.02;;;21.30;53.40;;;;;;6237796;28;20033;-66
2021/11/10 13:20:52;;;;;;;1.02;0.80;;;21.40;53.50;;;;;;6222514;28;20054;-66
2021/11/10 13:24:09;;;;;;;1.02;0.80;;;21.40;53.40;;;;;;6263857;28;20136;-66
2021/11/10 13:27:10;;;;;;;1.70;1.17;;;21.30;53.40;;;;;;6241539;28;20109;-66
2021/11/10 13:30:24;;;;;;;2.28;0.90;;;21.40;53.40;;;;;;6221251;28;20511;-66
2021/11/10 13:33:40;;;;;;;1.73;0.90;;;21.30;54.00;;;;;;6246796;28;20490;-66
2021/11/10 13:36:41;;;;;;;1.40;1.13;;;21.30;53.30;;;;;;6247015;28;20026;-66
2021/11/10 13:39:42;;;;;;;1.13;1.00;;;21.30;53.40;;;;;;6247054;28;20030;-66
2021/11/10 13:42:51;;;;;;;0.82;0.80;;;21.30;53.40;;;;;;6245768;28;20045;-66
2021/11/10 13:45:52;;;;;;;1.10;0.82;;;21.30;53.40;;;;;;6247740;28;20022;-66
2021/11/10 13:49:05;;;;;;;1.02;0.82;;;21.30;53.30;;;;;;6271522;28;20052;-66
2021/11/10 13:52:16;;;;;;;1.02;0.70;;;21.30;53.30;;;;;;6250630;28;20058;-66
2021/11/10 13:55:16;;;;;;;0.90;0.82;;;21.30;53.30;;;;;;6222036;28;20037;-66
2021/11/10 13:58:19;;;;;;;0.93;0.80;;;21.30;53.30;;;;;;6241906;28;20029;-66
2021/11/10 14:01:20;;;;;;;1.27;0.70;;;21.30;53.30;;;;;;6247878;28;20025;-66
2021/11/10 14:04:22;;;;;;;0.98;0.82;;;21.30;53.40;;;;;;6271244;28;20029;-66
2021/11/10 14:07:25;;;;;;;0.95;0.73;;;21.30;53.40;;;;;;6262346;28;20386;-66
2021/11/10 14:10:36;;;;;;;1.13;0.80;;;21.40;53.40;;;;;;6247048;28;20033;-65
2021/11/10 14:13:37;;;;;;;0.77;0.70;;;21.30;53.40;;;;;;6244732;28;20092;-66
2021/11/10 14:16:38;;;;;;;1.00;0.90;;;21.30;53.40;;;;;;6246197;28;20029;-66
2021/11/10 14:19:39;;;;;;;1.08;0.90;;;21.30;53.40;;;;;;6268017;28;20025;-65
2021/11/10 14:22:39;;;;;;;0.85;0.85;;;21.30;53.40;;;;;;6270897;28;20390;-66
2021/11/10 14:25:49;;;;;;;1.00;0.88;;;21.30;53.40;;;;;;6266884;28;20152;-66
2021/11/10 14:28:51;;;;;;;1.17;0.80;;;21.30;53.40;;;;;;6244761;28;20056;-66
2021/11/10 14:31:51;;;;;;;1.30;0.90;;;21.40;53.40;;;;;;6257946;28;20048;-66
2021/11/10 14:34:58;;;;;;;1.10;1.00;;;21.30;53.40;;;;;;6275586;28;20055;-66
2021/11/10 14:38:10;;;;;;;1.05;0.90;;;21.30;53.40;;;;;;6275736;28;20044;-66
2021/11/10 14:41:15;;;;;;;1.33;0.82;;;21.30;53.40;;;;;;6266372;28;20021;-66
2021/11/10 14:44:23;;;;;;;;;;;21.30;53.40;;;;;;6225331;28;20022;-66
2021/11/10 14:47:24;;;;;;;1.35;0.90;;;21.30;53.40;;;;;;6226440;28;20394;-66
2021/11/10 14:50:29;;;;;;;0.93;0.75;;;21.30;53.40;;;;;;6226009;28;20022;-66
2021/11/10 14:53:30;;;;;;;1.13;0.90;;;21.30;54.10;;;;;;6247906;28;20033;-66
2021/11/10 14:56:32;;;;;;;1.60;1.17;;;21.30;53.40;;;;;;6249171;28;20406;-65
2021/11/10 14:59:42;;;;;;;1.20;0.80;;;21.30;53.40;;;;;;6250521;28;20534;-66
2021/11/10 15:02:43;;;;;;;1.52;1.10;;;21.30;53.40;;;;;;6250301;28;20018;-65
2021/11/10 15:05:43;;;;;;;0.90;0.70;;;21.30;53.40;;;;;;6250443;28;20017;-65
2021/11/10 15:08:55;;;;;;;1.90;1.23;;;21.30;53.40;;;;;;6248946;28;20040;-66
2021/11/10 15:11:58;;;;;;;1.48;0.90;;;21.30;53.40;;;;;;6244549;28;20078;-66
2021/11/10 15:14:59;;;;;;;1.08;0.77;;;21.30;53.40;;;;;;6225480;28;20383;-65
2021/11/10 15:18:12;;;;;;;1.42;0.90;;;21.30;53.40;;;;;;6237394;28;20391;-68
2021/11/10 15:21:17;;;;;;;0.82;0.70;;;21.30;53.40;;;;;;6248340;28;20079;-66
2021/11/10 15:24:17;;;;;;;1.38;0.90;;;21.30;53.40;;;;;;6262275;28;20022;-70
2021/11/10 15:27:19;;;;;;;1.45;0.88;;;21.30;53.40;;;;;;6248339;28;20091;-70
2021/11/10 15:30:23;;;;;;;0.93;0.73;;;21.30;53.40;;;;;;6247549;28;20032;-68
2021/11/10 15:33:30;;;;;;;1.00;0.90;;;21.30;53.40;;;;;;6247900;28;20037;-67
2021/11/10 15:36:30;;;;;;;0.90;0.75;;;21.30;53.40;;;;;;6248488;28;20095;-69
2021/11/10 15:39:31;;;;;;;0.95;0.70;;;21.30;53.40;;;;;;6248648;28;20471;-66
2021/11/10 15:42:31;;;;;;;1.52;1.10;;;21.30;53.40;;;;;;6248732;28;20092;-66
2021/11/10 15:45:32;;;;;;;1.60;1.08;;;21.30;53.40;;;;;;6249255;28;20100;-66
2021/11/10 15:48:33;;;;;;;0.93;0.80;;;21.30;53.40;;;;;;6225956;28;20475;-66
2021/11/10 15:51:34;;;;;;;0.77;0.70;;;21.30;53.40;;;;;;6228743;28;20040;-66
2021/11/10 15:54:34;;;;;;;1.38;1.10;;;21.30;53.40;;;;;;6248672;28;20044;-64
2021/11/10 15:57:35;;;;;;;1.35;0.98;;;21.30;53.40;;;;;;6263152;28;20021;-67